sensor_id;sensor_type;location;lat;lon;timestamp;P1;durP1;ratioP1;P2;durP2;ratioP2
16660;SDS011;8444;52.012;5.048;2023-05-10T00:01:09;34.08;;;17.63;;
16660;SDS011;8444;52.012;5.048;2023-05-10T00:03:35;37.63;;;18.85;;
16660;SDS011;8444;52.012;5.048;2023-05-10T00:06:00;45.10;;;20.35;;
16660;SDS011;8444;52.012;5.048;2023-05-10T00:08:25;42.38;;;18.45;;
16660;SDS011;8444;52.012;5.048;2023-05-10T00:10:50;40.30;;;18.25;;
16660;SDS011;8444;52.012;5.048;2023-05-10T00:13:15;40.53;;;18.60;;
16660;SDS011;8444;52.012;5.048;2023-05-10T00:15:41;44.80;;;19.10;;
16660;SDS011;8444;52.012;5.048;2023-05-10T00:18:06;38.80;;;17.33;;
16660;SDS011;8444;52.012;5.048;2023-05-10T00:20:31;44.20;;;19.27;;
16660;SDS011;8444;52.012;5.048;2023-05-10T00:22:56;36.65;;;17.65;;
16660;SDS011;8444;52.012;5.048;2023-05-10T00:25:22;37.15;;;18.20;;
16660;SDS011;8444;52.012;5.048;2023-05-10T00:27:47;44.20;;;19.48;;
16660;SDS011;8444;52.012;5.048;2023-05-10T00:30:12;42.72;;;17.02;;
16660;SDS011;8444;52.012;5.048;2023-05-10T00:32:37;39.42;;;16.67;;
16660;SDS011;8444;52.012;5.048;2023-05-10T00:35:03;36.92;;;17.00;;
16660;SDS011;8444;52.012;5.048;2023-05-10T00:37:28;45.15;;;18.02;;
16660;SDS011;8444;52.012;5.048;2023-05-10T00:39:53;43.38;;;18.65;;
16660;SDS011;8444;52.012;5.048;2023-05-10T00:42:18;52.20;;;21.20;;
16660;SDS011;8444;52.012;5.048;2023-05-10T00:44:44;42.75;;;18.92;;
16660;SDS011;8444;52.012;5.048;2023-05-10T00:47:09;45.20;;;18.90;;
16660;SDS011;8444;52.012;5.048;2023-05-10T00:49:35;55.17;;;20.48;;
16660;SDS011;8444;52.012;5.048;2023-05-10T00:52:00;47.13;;;20.02;;
16660;SDS011;8444;52.012;5.048;2023-05-10T00:54:26;56.78;;;22.08;;
16660;SDS011;8444;52.012;5.048;2023-05-10T00:56:52;53.08;;;21.33;;
16660;SDS011;8444;52.012;5.048;2023-05-10T00:59:17;56.83;;;21.13;;
16660;SDS011;8444;52.012;5.048;2023-05-10T01:01:43;55.50;;;20.10;;
16660;SDS011;8444;52.012;5.048;2023-05-10T01:04:09;57.03;;;20.23;;
16660;SDS011;8444;52.012;5.048;2023-05-10T01:06:35;57.20;;;22.75;;
16660;SDS011;8444;52.012;5.048;2023-05-10T01:09:00;57.70;;;24.55;;
16660;SDS011;8444;52.012;5.048;2023-05-10T01:11:25;58.33;;;24.27;;
16660;SDS011;8444;52.012;5.048;2023-05-10T01:13:54;63.40;;;24.10;;
16660;SDS011;8444;52.012;5.048;2023-05-10T01:16:20;64.90;;;22.77;;
16660;SDS011;8444;52.012;5.048;2023-05-10T01:18:45;61.67;;;23.52;;
16660;SDS011;8444;52.012;5.048;2023-05-10T01:21:14;69.25;;;26.52;;
16660;SDS011;8444;52.012;5.048;2023-05-10T01:31:17;77.20;;;26.97;;
16660;SDS011;8444;52.012;5.048;2023-05-10T01:33:50;71.38;;;25.92;;
16660;SDS011;8444;52.012;5.048;2023-05-10T01:36:26;76.72;;;26.42;;
16660;SDS011;8444;52.012;5.048;2023-05-10T01:46:14;82.35;;;25.60;;
16660;SDS011;8444;52.012;5.048;2023-05-10T01:48:43;71.40;;;26.17;;
16660;SDS011;8444;52.012;5.048;2023-05-10T01:51:12;82.53;;;27.98;;
16660;SDS011;8444;52.012;5.048;2023-05-10T01:53:38;75.88;;;28.08;;
16660;SDS011;8444;52.012;5.048;2023-05-10T01:56:03;66.75;;;25.45;;
16660;SDS011;8444;52.012;5.048;2023-05-10T01:58:30;67.30;;;26.95;;
16660;SDS011;8444;52.012;5.048;2023-05-10T02:00:56;66.28;;;26.33;;
16660;SDS011;8444;52.012;5.048;2023-05-10T02:03:23;56.15;;;26.73;;
16660;SDS011;8444;52.012;5.048;2023-05-10T02:05:49;54.17;;;25.60;;
16660;SDS011;8444;52.012;5.048;2023-05-10T02:08:15;63.03;;;26.27;;
16660;SDS011;8444;52.012;5.048;2023-05-10T02:10:42;64.53;;;26.73;;
16660;SDS011;8444;52.012;5.048;2023-05-10T02:13:07;63.92;;;26.38;;
16660;SDS011;8444;52.012;5.048;2023-05-10T02:15:33;55.30;;;24.52;;
16660;SDS011;8444;52.012;5.048;2023-05-10T02:17:59;65.63;;;24.92;;
16660;SDS011;8444;52.012;5.048;2023-05-10T02:20:25;56.35;;;24.23;;
16660;SDS011;8444;52.012;5.048;2023-05-10T02:22:51;56.00;;;24.63;;
16660;SDS011;8444;52.012;5.048;2023-05-10T02:25:17;61.08;;;26.25;;
16660;SDS011;8444;52.012;5.048;2023-05-10T02:27:43;56.13;;;22.85;;
16660;SDS011;8444;52.012;5.048;2023-05-10T02:30:10;54.50;;;24.38;;
16660;SDS011;8444;52.012;5.048;2023-05-10T02:32:35;53.65;;;24.85;;
16660;SDS011;8444;52.012;5.048;2023-05-10T02:35:01;51.22;;;23.05;;
16660;SDS011;8444;52.012;5.048;2023-05-10T02:37:27;55.08;;;23.30;;
16660;SDS011;8444;52.012;5.048;2023-05-10T02:39:53;59.25;;;23.67;;
16660;SDS011;8444;52.012;5.048;2023-05-10T02:42:22;56.95;;;24.25;;
16660;SDS011;8444;52.012;5.048;2023-05-10T02:44:48;50.88;;;21.92;;
16660;SDS011;8444;52.012;5.048;2023-05-10T02:47:13;57.35;;;23.55;;
16660;SDS011;8444;52.012;5.048;2023-05-10T02:49:39;46.47;;;22.83;;
16660;SDS011;8444;52.012;5.048;2023-05-10T02:52:05;50.17;;;22.33;;
16660;SDS011;8444;52.012;5.048;2023-05-10T02:54:33;44.83;;;20.75;;
16660;SDS011;8444;52.012;5.048;2023-05-10T02:56:59;50.90;;;21.90;;
16660;SDS011;8444;52.012;5.048;2023-05-10T02:59:25;55.83;;;22.70;;
16660;SDS011;8444;52.012;5.048;2023-05-10T03:01:51;49.03;;;21.05;;
16660;SDS011;8444;52.012;5.048;2023-05-10T03:04:16;47.45;;;19.85;;
16660;SDS011;8444;52.012;5.048;2023-05-10T03:06:41;46.38;;;22.55;;
16660;SDS011;8444;52.012;5.048;2023-05-10T03:09:06;53.88;;;21.67;;
16660;SDS011;8444;52.012;5.048;2023-05-10T03:14:06;52.22;;;22.40;;
16660;SDS011;8444;52.012;5.048;2023-05-10T03:16:36;47.70;;;21.80;;
16660;SDS011;8444;52.012;5.048;2023-05-10T03:19:10;50.90;;;22.55;;
16660;SDS011;8444;52.012;5.048;2023-05-10T03:21:36;56.90;;;23.83;;
16660;SDS011;8444;52.012;5.048;2023-05-10T03:24:07;56.80;;;23.13;;
16660;SDS011;8444;52.012;5.048;2023-05-10T03:26:33;63.20;;;24.70;;
16660;SDS011;8444;52.012;5.048;2023-05-10T03:28:58;63.63;;;23.85;;
16660;SDS011;8444;52.012;5.048;2023-05-10T03:31:24;69.53;;;25.15;;
16660;SDS011;8444;52.012;5.048;2023-05-10T03:33:50;65.57;;;24.05;;
16660;SDS011;8444;52.012;5.048;2023-05-10T03:36:15;70.57;;;25.13;;
16660;SDS011;8444;52.012;5.048;2023-05-10T03:38:41;54.53;;;24.02;;
16660;SDS011;8444;52.012;5.048;2023-05-10T03:41:06;62.55;;;25.50;;
16660;SDS011;8444;52.012;5.048;2023-05-10T03:43:31;64.03;;;23.63;;
16660;SDS011;8444;52.012;5.048;2023-05-10T03:45:56;57.10;;;25.50;;
16660;SDS011;8444;52.012;5.048;2023-05-10T03:48:22;67.25;;;25.55;;
16660;SDS011;8444;52.012;5.048;2023-05-10T03:50:47;69.57;;;27.20;;
16660;SDS011;8444;52.012;5.048;2023-05-10T03:53:14;63.55;;;26.50;;
16660;SDS011;8444;52.012;5.048;2023-05-10T03:55:39;65.03;;;26.67;;
16660;SDS011;8444;52.012;5.048;2023-05-10T03:58:04;61.92;;;27.42;;
16660;SDS011;8444;52.012;5.048;2023-05-10T04:00:29;65.32;;;27.05;;
16660;SDS011;8444;52.012;5.048;2023-05-10T04:02:55;73.28;;;27.73;;
16660;SDS011;8444;52.012;5.048;2023-05-10T04:05:21;65.72;;;30.50;;
16660;SDS011;8444;52.012;5.048;2023-05-10T04:07:46;62.40;;;28.73;;
16660;SDS011;8444;52.012;5.048;2023-05-10T04:10:12;67.30;;;27.73;;
16660;SDS011;8444;52.012;5.048;2023-05-10T04:12:37;65.30;;;28.10;;
16660;SDS011;8444;52.012;5.048;2023-05-10T04:15:02;69.45;;;28.88;;
16660;SDS011;8444;52.012;5.048;2023-05-10T04:17:27;62.25;;;25.58;;
16660;SDS011;8444;52.012;5.048;2023-05-10T04:19:53;60.58;;;27.25;;
16660;SDS011;8444;52.012;5.048;2023-05-10T04:22:19;60.00;;;28.10;;
16660;SDS011;8444;52.012;5.048;2023-05-10T04:24:45;61.00;;;29.17;;
16660;SDS011;8444;52.012;5.048;2023-05-10T04:27:10;69.78;;;30.02;;
16660;SDS011;8444;52.012;5.048;2023-05-10T04:29:36;67.78;;;30.30;;
16660;SDS011;8444;52.012;5.048;2023-05-10T04:32:01;69.00;;;31.08;;
16660;SDS011;8444;52.012;5.048;2023-05-10T04:34:27;69.13;;;31.95;;
16660;SDS011;8444;52.012;5.048;2023-05-10T04:36:52;65.47;;;31.05;;
16660;SDS011;8444;52.012;5.048;2023-05-10T04:39:17;68.70;;;32.95;;
16660;SDS011;8444;52.012;5.048;2023-05-10T04:41:43;62.88;;;32.03;;
16660;SDS011;8444;52.012;5.048;2023-05-10T04:44:08;75.68;;;33.58;;
16660;SDS011;8444;52.012;5.048;2023-05-10T04:46:33;62.47;;;33.30;;
16660;SDS011;8444;52.012;5.048;2023-05-10T04:48:58;63.83;;;33.72;;
16660;SDS011;8444;52.012;5.048;2023-05-10T04:51:23;66.63;;;35.33;;
16660;SDS011;8444;52.012;5.048;2023-05-10T04:53:49;68.40;;;33.67;;
16660;SDS011;8444;52.012;5.048;2023-05-10T04:56:14;72.28;;;34.42;;
16660;SDS011;8444;52.012;5.048;2023-05-10T04:58:39;64.88;;;34.92;;
16660;SDS011;8444;52.012;5.048;2023-05-10T05:01:05;71.53;;;34.83;;
16660;SDS011;8444;52.012;5.048;2023-05-10T05:03:31;65.45;;;33.15;;
16660;SDS011;8444;52.012;5.048;2023-05-10T05:05:57;58.78;;;31.90;;
16660;SDS011;8444;52.012;5.048;2023-05-10T05:08:22;67.97;;;31.98;;
16660;SDS011;8444;52.012;5.048;2023-05-10T05:10:48;61.28;;;30.60;;
16660;SDS011;8444;52.012;5.048;2023-05-10T05:13:15;62.30;;;29.83;;
16660;SDS011;8444;52.012;5.048;2023-05-10T05:15:40;65.47;;;29.60;;
16660;SDS011;8444;52.012;5.048;2023-05-10T05:18:05;64.03;;;29.50;;
16660;SDS011;8444;52.012;5.048;2023-05-10T05:20:31;64.95;;;29.55;;
16660;SDS011;8444;52.012;5.048;2023-05-10T05:22:57;61.13;;;29.27;;
16660;SDS011;8444;52.012;5.048;2023-05-10T05:25:22;62.88;;;29.40;;
16660;SDS011;8444;52.012;5.048;2023-05-10T05:27:47;55.15;;;28.02;;
16660;SDS011;8444;52.012;5.048;2023-05-10T05:30:12;59.95;;;30.02;;
16660;SDS011;8444;52.012;5.048;2023-05-10T05:32:38;62.70;;;30.30;;
16660;SDS011;8444;52.012;5.048;2023-05-10T05:35:03;53.67;;;29.60;;
16660;SDS011;8444;52.012;5.048;2023-05-10T05:37:28;55.47;;;30.95;;
16660;SDS011;8444;52.012;5.048;2023-05-10T05:39:53;55.88;;;29.00;;
16660;SDS011;8444;52.012;5.048;2023-05-10T05:42:20;57.05;;;28.05;;
16660;SDS011;8444;52.012;5.048;2023-05-10T05:44:45;53.67;;;26.52;;
16660;SDS011;8444;52.012;5.048;2023-05-10T05:47:10;54.92;;;26.85;;
16660;SDS011;8444;52.012;5.048;2023-05-10T05:49:36;53.05;;;27.90;;
16660;SDS011;8444;52.012;5.048;2023-05-10T05:52:02;46.15;;;25.48;;
16660;SDS011;8444;52.012;5.048;2023-05-10T05:54:28;54.20;;;25.27;;
16660;SDS011;8444;52.012;5.048;2023-05-10T05:56:54;49.72;;;24.00;;
16660;SDS011;8444;52.012;5.048;2023-05-10T05:59:19;46.00;;;21.90;;
16660;SDS011;8444;52.012;5.048;2023-05-10T06:01:44;39.80;;;20.52;;
16660;SDS011;8444;52.012;5.048;2023-05-10T06:04:10;45.15;;;19.90;;
16660;SDS011;8444;52.012;5.048;2023-05-10T06:06:35;44.20;;;22.08;;
16660;SDS011;8444;52.012;5.048;2023-05-10T06:09:01;45.88;;;20.88;;
16660;SDS011;8444;52.012;5.048;2023-05-10T06:11:26;37.42;;;18.27;;
16660;SDS011;8444;52.012;5.048;2023-05-10T06:13:51;36.70;;;18.13;;
16660;SDS011;8444;52.012;5.048;2023-05-10T06:16:16;33.95;;;18.27;;
16660;SDS011;8444;52.012;5.048;2023-05-10T06:18:42;34.30;;;16.55;;
16660;SDS011;8444;52.012;5.048;2023-05-10T06:21:07;26.90;;;14.60;;
16660;SDS011;8444;52.012;5.048;2023-05-10T06:23:33;27.95;;;14.77;;
16660;SDS011;8444;52.012;5.048;2023-05-10T06:25:58;24.95;;;13.45;;
16660;SDS011;8444;52.012;5.048;2023-05-10T06:28:23;20.73;;;12.38;;
16660;SDS011;8444;52.012;5.048;2023-05-10T06:30:48;19.33;;;11.60;;
16660;SDS011;8444;52.012;5.048;2023-05-10T06:33:14;18.58;;;10.48;;
16660;SDS011;8444;52.012;5.048;2023-05-10T06:35:40;21.70;;;10.75;;
16660;SDS011;8444;52.012;5.048;2023-05-10T06:38:06;19.02;;;9.68;;
16660;SDS011;8444;52.012;5.048;2023-05-10T06:40:31;21.38;;;10.02;;
16660;SDS011;8444;52.012;5.048;2023-05-10T06:42:56;20.10;;;10.38;;
16660;SDS011;8444;52.012;5.048;2023-05-10T06:45:21;21.48;;;9.93;;
16660;SDS011;8444;52.012;5.048;2023-05-10T06:47:46;20.30;;;10.48;;
16660;SDS011;8444;52.012;5.048;2023-05-10T06:50:12;19.98;;;10.20;;
16660;SDS011;8444;52.012;5.048;2023-05-10T06:52:37;20.40;;;10.15;;
16660;SDS011;8444;52.012;5.048;2023-05-10T06:55:03;24.48;;;10.95;;
16660;SDS011;8444;52.012;5.048;2023-05-10T06:57:28;18.10;;;10.88;;
16660;SDS011;8444;52.012;5.048;2023-05-10T06:59:53;19.35;;;10.85;;
16660;SDS011;8444;52.012;5.048;2023-05-10T07:02:20;18.20;;;8.93;;
16660;SDS011;8444;52.012;5.048;2023-05-10T07:04:46;18.80;;;9.45;;
16660;SDS011;8444;52.012;5.048;2023-05-10T07:07:11;20.23;;;9.93;;
16660;SDS011;8444;52.012;5.048;2023-05-10T07:09:37;14.98;;;8.30;;
16660;SDS011;8444;52.012;5.048;2023-05-10T07:12:02;15.57;;;8.48;;
16660;SDS011;8444;52.012;5.048;2023-05-10T07:14:27;16.40;;;8.45;;
16660;SDS011;8444;52.012;5.048;2023-05-10T07:16:53;15.65;;;8.15;;
16660;SDS011;8444;52.012;5.048;2023-05-10T07:19:18;14.02;;;8.40;;
16660;SDS011;8444;52.012;5.048;2023-05-10T07:21:43;14.65;;;8.13;;
16660;SDS011;8444;52.012;5.048;2023-05-10T07:24:08;15.05;;;8.23;;
16660;SDS011;8444;52.012;5.048;2023-05-10T07:26:37;12.32;;;7.50;;
16660;SDS011;8444;52.012;5.048;2023-05-10T07:29:02;12.73;;;7.68;;
16660;SDS011;8444;52.012;5.048;2023-05-10T07:31:27;13.32;;;7.35;;
16660;SDS011;8444;52.012;5.048;2023-05-10T07:33:53;14.98;;;7.57;;
16660;SDS011;8444;52.012;5.048;2023-05-10T07:36:18;15.02;;;5.93;;
16660;SDS011;8444;52.012;5.048;2023-05-10T07:38:43;12.32;;;6.30;;
16660;SDS011;8444;52.012;5.048;2023-05-10T07:41:09;10.60;;;5.97;;
16660;SDS011;8444;52.012;5.048;2023-05-10T07:43:34;10.93;;;6.72;;
16660;SDS011;8444;52.012;5.048;2023-05-10T07:45:59;10.98;;;6.00;;
16660;SDS011;8444;52.012;5.048;2023-05-10T07:48:25;9.02;;;5.35;;
16660;SDS011;8444;52.012;5.048;2023-05-10T07:50:50;14.32;;;4.65;;
16660;SDS011;8444;52.012;5.048;2023-05-10T07:53:15;6.20;;;3.80;;
16660;SDS011;8444;52.012;5.048;2023-05-10T07:55:40;7.00;;;4.53;;
16660;SDS011;8444;52.012;5.048;2023-05-10T07:58:06;10.52;;;5.47;;
16660;SDS011;8444;52.012;5.048;2023-05-10T08:00:31;7.70;;;4.90;;
16660;SDS011;8444;52.012;5.048;2023-05-10T08:02:56;8.52;;;4.95;;
16660;SDS011;8444;52.012;5.048;2023-05-10T08:05:22;8.27;;;3.80;;
16660;SDS011;8444;52.012;5.048;2023-05-10T08:07:47;10.65;;;4.93;;
16660;SDS011;8444;52.012;5.048;2023-05-10T08:10:12;7.38;;;4.15;;
16660;SDS011;8444;52.012;5.048;2023-05-10T08:12:38;7.18;;;4.75;;
16660;SDS011;8444;52.012;5.048;2023-05-10T08:15:03;8.82;;;5.28;;
16660;SDS011;8444;52.012;5.048;2023-05-10T08:17:29;5.25;;;3.90;;
16660;SDS011;8444;52.012;5.048;2023-05-10T08:19:54;7.22;;;4.10;;
16660;SDS011;8444;52.012;5.048;2023-05-10T08:22:19;7.05;;;4.05;;
16660;SDS011;8444;52.012;5.048;2023-05-10T08:24:44;7.15;;;4.28;;
16660;SDS011;8444;52.012;5.048;2023-05-10T08:27:10;5.60;;;4.05;;
16660;SDS011;8444;52.012;5.048;2023-05-10T08:29:35;7.95;;;3.97;;
16660;SDS011;8444;52.012;5.048;2023-05-10T08:32:00;7.60;;;4.38;;
16660;SDS011;8444;52.012;5.048;2023-05-10T08:34:26;7.03;;;4.28;;
16660;SDS011;8444;52.012;5.048;2023-05-10T08:36:51;7.15;;;3.50;;
16660;SDS011;8444;52.012;5.048;2023-05-10T08:39:16;3.60;;;2.50;;
16660;SDS011;8444;52.012;5.048;2023-05-10T08:41:41;5.30;;;3.38;;
16660;SDS011;8444;52.012;5.048;2023-05-10T08:44:08;7.50;;;4.10;;
16660;SDS011;8444;52.012;5.048;2023-05-10T08:46:34;5.85;;;4.00;;
16660;SDS011;8444;52.012;5.048;2023-05-10T08:49:03;5.00;;;3.55;;
16660;SDS011;8444;52.012;5.048;2023-05-10T08:51:29;4.40;;;3.33;;
16660;SDS011;8444;52.012;5.048;2023-05-10T08:53:58;4.45;;;3.00;;
16660;SDS011;8444;52.012;5.048;2023-05-10T08:56:23;5.55;;;3.17;;
16660;SDS011;8444;52.012;5.048;2023-05-10T08:58:49;4.55;;;3.45;;
16660;SDS011;8444;52.012;5.048;2023-05-10T09:01:15;4.53;;;3.30;;
16660;SDS011;8444;52.012;5.048;2023-05-10T09:03:40;6.15;;;3.60;;
16660;SDS011;8444;52.012;5.048;2023-05-10T09:06:06;5.65;;;3.72;;
16660;SDS011;8444;52.012;5.048;2023-05-10T09:08:31;5.57;;;3.08;;
16660;SDS011;8444;52.012;5.048;2023-05-10T09:10:57;5.47;;;3.03;;
16660;SDS011;8444;52.012;5.048;2023-05-10T09:13:23;5.95;;;3.30;;
16660;SDS011;8444;52.012;5.048;2023-05-10T09:15:48;5.75;;;3.05;;
16660;SDS011;8444;52.012;5.048;2023-05-10T09:18:14;5.05;;;3.47;;
16660;SDS011;8444;52.012;5.048;2023-05-10T09:20:39;4.53;;;3.00;;
16660;SDS011;8444;52.012;5.048;2023-05-10T09:23:05;4.72;;;3.13;;
16660;SDS011;8444;52.012;5.048;2023-05-10T09:25:30;6.43;;;4.28;;
16660;SDS011;8444;52.012;5.048;2023-05-10T09:27:58;6.18;;;3.95;;
16660;SDS011;8444;52.012;5.048;2023-05-10T09:30:28;6.38;;;3.45;;
16660;SDS011;8444;52.012;5.048;2023-05-10T09:32:54;6.65;;;3.45;;
16660;SDS011;8444;52.012;5.048;2023-05-10T09:35:20;5.05;;;3.80;;
16660;SDS011;8444;52.012;5.048;2023-05-10T09:37:47;5.20;;;4.20;;
16660;SDS011;8444;52.012;5.048;2023-05-10T09:40:17;7.80;;;3.92;;
16660;SDS011;8444;52.012;5.048;2023-05-10T09:42:50;5.85;;;3.65;;
16660;SDS011;8444;52.012;5.048;2023-05-10T09:45:15;6.22;;;3.55;;
16660;SDS011;8444;52.012;5.048;2023-05-10T09:47:40;5.07;;;3.88;;
16660;SDS011;8444;52.012;5.048;2023-05-10T09:50:06;6.25;;;3.70;;
16660;SDS011;8444;52.012;5.048;2023-05-10T09:52:45;8.32;;;4.68;;
16660;SDS011;8444;52.012;5.048;2023-05-10T09:55:11;6.32;;;4.22;;
16660;SDS011;8444;52.012;5.048;2023-05-10T09:57:37;6.35;;;3.50;;
16660;SDS011;8444;52.012;5.048;2023-05-10T10:00:02;6.68;;;3.95;;
16660;SDS011;8444;52.012;5.048;2023-05-10T10:02:30;5.50;;;3.33;;
16660;SDS011;8444;52.012;5.048;2023-05-10T10:04:55;6.10;;;3.72;;
16660;SDS011;8444;52.012;5.048;2023-05-10T10:07:24;6.57;;;4.03;;
16660;SDS011;8444;52.012;5.048;2023-05-10T10:09:53;6.93;;;4.55;;
16660;SDS011;8444;52.012;5.048;2023-05-10T10:12:18;6.35;;;4.20;;
16660;SDS011;8444;52.012;5.048;2023-05-10T10:14:44;7.57;;;4.07;;
16660;SDS011;8444;52.012;5.048;2023-05-10T10:17:10;5.38;;;3.58;;
16660;SDS011;8444;52.012;5.048;2023-05-10T10:19:36;5.55;;;3.78;;
16660;SDS011;8444;52.012;5.048;2023-05-10T10:22:02;6.75;;;4.05;;
16660;SDS011;8444;52.012;5.048;2023-05-10T10:24:27;4.47;;;2.85;;
16660;SDS011;8444;52.012;5.048;2023-05-10T10:26:53;5.35;;;3.35;;
16660;SDS011;8444;52.012;5.048;2023-05-10T10:34:45;4.30;;;2.88;;
16660;SDS011;8444;52.012;5.048;2023-05-10T10:37:10;4.50;;;3.05;;
16660;SDS011;8444;52.012;5.048;2023-05-10T10:39:35;7.05;;;3.05;;
16660;SDS011;8444;52.012;5.048;2023-05-10T10:42:01;5.35;;;3.08;;
16660;SDS011;8444;52.012;5.048;2023-05-10T10:49:50;4.90;;;3.30;;
16660;SDS011;8444;52.012;5.048;2023-05-10T10:52:41;6.38;;;3.15;;
16660;SDS011;8444;52.012;5.048;2023-05-10T10:57:42;4.47;;;3.45;;
16660;SDS011;8444;52.012;5.048;2023-05-10T11:00:25;4.45;;;3.65;;
16660;SDS011;8444;52.012;5.048;2023-05-10T11:02:52;4.55;;;3.53;;
16660;SDS011;8444;52.012;5.048;2023-05-10T11:05:38;3.47;;;2.78;;
16660;SDS011;8444;52.012;5.048;2023-05-10T11:08:06;7.28;;;4.07;;
16660;SDS011;8444;52.012;5.048;2023-05-10T11:10:32;5.13;;;3.72;;
16660;SDS011;8444;52.012;5.048;2023-05-10T11:13:04;5.72;;;3.45;;
16660;SDS011;8444;52.012;5.048;2023-05-10T11:15:40;5.47;;;3.20;;
16660;SDS011;8444;52.012;5.048;2023-05-10T11:18:18;6.78;;;3.17;;
16660;SDS011;8444;52.012;5.048;2023-05-10T11:20:44;4.53;;;3.00;;
16660;SDS011;8444;52.012;5.048;2023-05-10T11:23:11;8.35;;;3.95;;
16660;SDS011;8444;52.012;5.048;2023-05-10T11:25:44;4.57;;;4.18;;
16660;SDS011;8444;52.012;5.048;2023-05-10T11:28:10;4.22;;;3.83;;
16660;SDS011;8444;52.012;5.048;2023-05-10T11:30:36;4.43;;;4.00;;
16660;SDS011;8444;52.012;5.048;2023-05-10T11:33:01;4.60;;;3.58;;
16660;SDS011;8444;52.012;5.048;2023-05-10T11:35:27;6.13;;;4.45;;
16660;SDS011;8444;52.012;5.048;2023-05-10T11:37:52;6.13;;;4.50;;
16660;SDS011;8444;52.012;5.048;2023-05-10T11:40:17;6.53;;;5.80;;
16660;SDS011;8444;52.012;5.048;2023-05-10T11:42:43;4.85;;;4.30;;
16660;SDS011;8444;52.012;5.048;2023-05-10T11:45:09;5.15;;;4.45;;
16660;SDS011;8444;52.012;5.048;2023-05-10T11:47:35;5.22;;;4.32;;
16660;SDS011;8444;52.012;5.048;2023-05-10T11:50:01;5.93;;;4.53;;
16660;SDS011;8444;52.012;5.048;2023-05-10T11:52:27;4.60;;;3.97;;
16660;SDS011;8444;52.012;5.048;2023-05-10T11:54:52;4.15;;;3.75;;
16660;SDS011;8444;52.012;5.048;2023-05-10T11:57:18;7.80;;;4.50;;
16660;SDS011;8444;52.012;5.048;2023-05-10T11:59:45;6.32;;;4.93;;
16660;SDS011;8444;52.012;5.048;2023-05-10T12:02:10;7.13;;;5.80;;
16660;SDS011;8444;52.012;5.048;2023-05-10T12:04:36;7.15;;;5.10;;
16660;SDS011;8444;52.012;5.048;2023-05-10T12:07:01;5.57;;;5.00;;
16660;SDS011;8444;52.012;5.048;2023-05-10T12:09:27;5.65;;;4.57;;
16660;SDS011;8444;52.012;5.048;2023-05-10T12:11:54;4.97;;;4.45;;
16660;SDS011;8444;52.012;5.048;2023-05-10T12:14:21;7.18;;;5.57;;
16660;SDS011;8444;52.012;5.048;2023-05-10T12:16:47;6.97;;;6.07;;
16660;SDS011;8444;52.012;5.048;2023-05-10T12:19:12;9.10;;;5.90;;
16660;SDS011;8444;52.012;5.048;2023-05-10T12:21:37;7.07;;;5.30;;
16660;SDS011;8444;52.012;5.048;2023-05-10T12:24:04;7.47;;;5.13;;
16660;SDS011;8444;52.012;5.048;2023-05-10T12:26:30;8.02;;;4.57;;
16660;SDS011;8444;52.012;5.048;2023-05-10T12:29:01;7.85;;;5.03;;
16660;SDS011;8444;52.012;5.048;2023-05-10T12:31:48;10.93;;;5.45;;
16660;SDS011;8444;52.012;5.048;2023-05-10T12:34:22;9.10;;;5.82;;
16660;SDS011;8444;52.012;5.048;2023-05-10T12:36:49;13.27;;;6.35;;
16660;SDS011;8444;52.012;5.048;2023-05-10T12:39:15;12.57;;;7.35;;
16660;SDS011;8444;52.012;5.048;2023-05-10T12:41:40;12.52;;;6.95;;
16660;SDS011;8444;52.012;5.048;2023-05-10T12:44:05;13.35;;;6.28;;
16660;SDS011;8444;52.012;5.048;2023-05-10T12:46:30;18.08;;;6.18;;
16660;SDS011;8444;52.012;5.048;2023-05-10T12:48:56;13.25;;;7.13;;
16660;SDS011;8444;52.012;5.048;2023-05-10T12:51:21;15.85;;;8.10;;
16660;SDS011;8444;52.012;5.048;2023-05-10T12:53:47;12.77;;;6.95;;
16660;SDS011;8444;52.012;5.048;2023-05-10T12:56:13;12.80;;;6.47;;
16660;SDS011;8444;52.012;5.048;2023-05-10T12:58:38;10.27;;;5.65;;
16660;SDS011;8444;52.012;5.048;2023-05-10T13:01:04;10.52;;;6.22;;
16660;SDS011;8444;52.012;5.048;2023-05-10T13:03:29;10.10;;;5.95;;
16660;SDS011;8444;52.012;5.048;2023-05-10T13:05:55;9.98;;;5.97;;
16660;SDS011;8444;52.012;5.048;2023-05-10T13:08:20;12.18;;;7.03;;
16660;SDS011;8444;52.012;5.048;2023-05-10T13:10:45;11.00;;;6.78;;
16660;SDS011;8444;52.012;5.048;2023-05-10T13:13:11;12.02;;;6.38;;
16660;SDS011;8444;52.012;5.048;2023-05-10T13:15:36;10.93;;;6.57;;
16660;SDS011;8444;52.012;5.048;2023-05-10T13:18:01;10.70;;;7.15;;
16660;SDS011;8444;52.012;5.048;2023-05-10T13:20:26;10.40;;;7.10;;
16660;SDS011;8444;52.012;5.048;2023-05-10T13:22:52;9.52;;;6.95;;
16660;SDS011;8444;52.012;5.048;2023-05-10T13:25:17;9.95;;;6.68;;
16660;SDS011;8444;52.012;5.048;2023-05-10T13:27:42;11.65;;;7.47;;
16660;SDS011;8444;52.012;5.048;2023-05-10T13:30:08;10.73;;;6.80;;
16660;SDS011;8444;52.012;5.048;2023-05-10T13:32:33;10.25;;;7.65;;
16660;SDS011;8444;52.012;5.048;2023-05-10T13:34:59;11.57;;;7.00;;
16660;SDS011;8444;52.012;5.048;2023-05-10T13:37:24;10.57;;;6.30;;
16660;SDS011;8444;52.012;5.048;2023-05-10T13:39:49;9.07;;;6.72;;
16660;SDS011;8444;52.012;5.048;2023-05-10T13:42:15;10.77;;;6.95;;
16660;SDS011;8444;52.012;5.048;2023-05-10T13:44:40;10.07;;;6.05;;
16660;SDS011;8444;52.012;5.048;2023-05-10T13:47:05;11.07;;;6.80;;
16660;SDS011;8444;52.012;5.048;2023-05-10T13:49:31;12.85;;;6.60;;
16660;SDS011;8444;52.012;5.048;2023-05-10T13:51:56;10.27;;;5.72;;
16660;SDS011;8444;52.012;5.048;2023-05-10T13:54:21;9.50;;;6.43;;
16660;SDS011;8444;52.012;5.048;2023-05-10T13:56:47;7.90;;;5.57;;
16660;SDS011;8444;52.012;5.048;2023-05-10T13:59:13;8.32;;;5.35;;
16660;SDS011;8444;52.012;5.048;2023-05-10T14:01:39;8.88;;;5.15;;
16660;SDS011;8444;52.012;5.048;2023-05-10T14:04:04;12.05;;;6.40;;
16660;SDS011;8444;52.012;5.048;2023-05-10T14:06:29;10.60;;;5.80;;
16660;SDS011;8444;52.012;5.048;2023-05-10T14:08:55;8.85;;;5.78;;
16660;SDS011;8444;52.012;5.048;2023-05-10T14:11:21;9.63;;;5.82;;
16660;SDS011;8444;52.012;5.048;2023-05-10T14:13:46;12.52;;;6.18;;
16660;SDS011;8444;52.012;5.048;2023-05-10T14:16:11;9.38;;;5.60;;
16660;SDS011;8444;52.012;5.048;2023-05-10T14:18:37;8.02;;;5.45;;
16660;SDS011;8444;52.012;5.048;2023-05-10T14:21:02;8.40;;;5.30;;
16660;SDS011;8444;52.012;5.048;2023-05-10T14:23:28;9.95;;;6.13;;
16660;SDS011;8444;52.012;5.048;2023-05-10T14:25:53;9.75;;;5.32;;
16660;SDS011;8444;52.012;5.048;2023-05-10T14:28:19;7.22;;;4.78;;
16660;SDS011;8444;52.012;5.048;2023-05-10T14:30:45;10.32;;;5.85;;
16660;SDS011;8444;52.012;5.048;2023-05-10T14:33:11;11.60;;;6.28;;
16660;SDS011;8444;52.012;5.048;2023-05-10T14:35:36;8.30;;;5.93;;
16660;SDS011;8444;52.012;5.048;2023-05-10T14:38:02;9.63;;;5.25;;
16660;SDS011;8444;52.012;5.048;2023-05-10T14:40:28;11.27;;;7.10;;
16660;SDS011;8444;52.012;5.048;2023-05-10T14:42:53;10.02;;;6.25;;
16660;SDS011;8444;52.012;5.048;2023-05-10T14:45:19;10.68;;;6.47;;
16660;SDS011;8444;52.012;5.048;2023-05-10T14:47:45;10.70;;;6.13;;
16660;SDS011;8444;52.012;5.048;2023-05-10T14:50:10;8.50;;;5.95;;
16660;SDS011;8444;52.012;5.048;2023-05-10T14:52:35;9.73;;;6.57;;
16660;SDS011;8444;52.012;5.048;2023-05-10T14:55:01;12.25;;;7.40;;
16660;SDS011;8444;52.012;5.048;2023-05-10T14:57:26;13.13;;;6.55;;
16660;SDS011;8444;52.012;5.048;2023-05-10T14:59:54;9.60;;;6.75;;
16660;SDS011;8444;52.012;5.048;2023-05-10T15:02:19;11.95;;;6.97;;
16660;SDS011;8444;52.012;5.048;2023-05-10T15:04:44;12.02;;;6.68;;
16660;SDS011;8444;52.012;5.048;2023-05-10T15:07:10;12.70;;;7.05;;
16660;SDS011;8444;52.012;5.048;2023-05-10T15:09:39;12.98;;;7.80;;